Observations for CRANFIELD, United Kingdom (EGTC)

EGTC 191620Z 04009KT CAVOK 22/06 Q1028  
EGTC 191550Z 03009KT CAVOK 22/07 Q1028  
EGTC 191520Z 05006KT 010V070 CAVOK 23/07 Q1028  
EGTC 191450Z 04008KT 020V100 CAVOK 22/06 Q1029  
EGTC 191420Z 07008KT CAVOK 22/08 Q1029  
EGTC 191350Z 05007KT 020V090 CAVOK 22/09 Q1029  
EGTC 191320Z 06008KT 020V090 CAVOK 21/09 Q1029  
EGTC 191250Z 07009KT 020V110 CAVOK 20/10 Q1029  
EGTC 191220Z 06009KT 8000 NSC 20/10 Q1029   
EGTC 191150Z 05010KT 030V090 8000 NSC 19/09 Q1029   
EGTC 191120Z 05009KT 010V080 8000 NSC 18/09 Q1029   
EGTC 191050Z 04008KT 8000 NSC 16/09 Q1029   
EGTC 191020Z 03005KT 8000 NSC 15/09 Q1029   
EGTC 190950Z 02003KT 350V060 7000 NSC 14/09 Q1029   
EGTC 190920Z 03003KT 5000 HZ NSC 13/09 Q1029
EGTC 190850Z 02006KT 350V070 6000 NSC 13/09 Q1029   
EGTC 190820Z 02005KT 5000 HZ NSC 11/09 Q1029
EGTC 190750Z 03007KT 5000 HZ NSC 10/09 Q1029
EGTC 190720Z 03008KT 4000 HZ NSC 09/08 Q1028